Time;durP1;ratioP1;P1;durP2;ratioP2;P2;SDS_P1;SDS_P2;PMS_P1;PMS_P2;Temp;Humidity;BMP_temperature;BMP_pressure;BME280_temperature;BME280_humidity;BME280_pressure;Samples;Min_cycle;Max_cycle;Signal;HPM_P1;HPM_P2
2022/11/11 00:00:37;;;;;;;5.40;3.72;;;7.10;99.90;;;;;;5166642;28;20030;-66
2022/11/11 00:03:29;;;;;;;6.55;3.97;;;7.00;99.90;;;;;;5163117;28;20026;-66
2022/11/11 00:06:21;;;;;;;4.55;3.58;;;7.00;99.90;;;;;;5140246;28;20058;-66
2022/11/11 00:09:12;;;;;;;7.32;3.65;;;7.00;99.90;;;;;;5151160;28;20038;-68
2022/11/11 00:12:05;;;;;;;8.50;3.90;;;7.00;99.90;;;;;;5161293;28;20457;-67
2022/11/11 00:14:56;;;;;;;6.07;3.63;;;7.00;99.90;;;;;;5152782;28;20030;-65
2022/11/11 00:27:42;;;;;;;7.03;3.83;;;6.70;99.90;;;;;;5204488;28;20040;-66
2022/11/11 00:30:37;;;;;;;7.95;4.45;;;6.50;99.90;;;;;;5186550;28;20036;-67
2022/11/11 00:33:29;;;;;;;;;;;6.40;99.90;;;;;;5186153;28;20029;-66
2022/11/11 00:36:28;;;;;;;6.22;3.50;;;6.40;99.90;;;;;;5186245;28;20122;-68
2022/11/11 00:39:20;;;;;;;6.18;3.88;;;6.30;99.90;;;;;;5172871;28;20034;-66
2022/11/11 00:42:14;;;;;;;7.65;3.85;;;6.30;99.90;;;;;;5171136;28;20021;-64
2022/11/11 00:45:08;;;;;;;11.20;5.80;;;6.20;99.90;;;;;;5137682;28;20044;-70
2022/11/11 00:51:12;;;;;;;12.38;5.63;;;6.40;99.90;;;;;;5166798;28;20026;-71
2022/11/11 00:54:05;;;;;;;7.55;5.38;;;6.30;99.90;;;;;;5166313;28;20033;-69
2022/11/11 00:56:58;;;;;;;8.30;5.20;;;6.30;99.90;;;;;;5171337;28;20021;-66
2022/11/11 00:59:55;;;;;;;7.55;4.43;;;6.20;99.90;;;;;;5162071;28;20034;-70
2022/11/11 01:02:46;;;;;;;9.00;4.40;;;6.10;99.90;;;;;;5180524;23;20045;-76
2022/11/11 01:05:40;;;;;;;8.27;5.53;;;6.00;99.90;;;;;;5172373;28;20107;-76
2022/11/11 01:08:32;;;;;;;11.90;4.60;;;5.80;99.90;;;;;;5177012;28;20037;-76
2022/11/11 01:11:24;;;;;;;9.32;5.15;;;5.80;99.90;;;;;;5189970;28;20079;-76
2022/11/11 01:14:17;;;;;;;7.65;5.50;;;5.80;99.90;;;;;;5177900;28;20522;-76
2022/11/11 01:17:13;;;;;;;8.32;5.63;;;5.80;99.90;;;;;;5174956;28;20088;-77
2022/11/11 01:20:05;;;;;;;11.35;6.68;;;5.80;99.90;;;;;;5190794;28;20044;-76
2022/11/11 01:22:57;;;;;;;13.80;5.85;;;5.90;99.90;;;;;;5174827;28;20046;-76
2022/11/11 01:25:48;;;;;;;10.80;6.13;;;5.90;99.90;;;;;;5177999;28;20041;-76
2022/11/11 01:28:40;;;;;;;7.40;5.07;;;5.80;99.90;;;;;;5177471;28;20044;-77
2022/11/11 01:31:37;;;;;;;9.55;5.88;;;5.70;99.90;;;;;;5142469;28;20026;-76
2022/11/11 01:34:29;;;;;;;10.50;5.47;;;5.60;99.90;;;;;;5154471;28;20038;-76
2022/11/11 01:37:20;;;;;;;7.50;4.72;;;5.60;99.90;;;;;;5158802;28;20038;-76
2022/11/11 01:40:18;;;;;;;9.80;5.50;;;5.60;99.90;;;;;;5183985;28;20342;-77
2022/11/11 01:43:21;;;;;;;7.50;5.38;;;5.50;99.90;;;;;;5172548;28;20311;-76
2022/11/11 01:46:43;;;;;;;10.45;6.25;;;5.60;99.90;;;;;;5188462;28;20046;-76
2022/11/11 01:49:51;;;;;;;10.55;6.35;;;5.60;99.90;;;;;;5173557;28;20327;-76
2022/11/11 01:52:46;;;;;;;9.52;5.88;;;5.60;99.90;;;;;;5187469;28;20036;-76
2022/11/11 01:55:40;;;;;;;12.43;6.18;;;5.70;99.90;;;;;;5175637;28;20038;-76
2022/11/11 01:58:36;;;;;;;10.85;5.20;;;5.70;99.90;;;;;;5194893;28;20479;-76
2022/11/11 02:01:33;;;;;;;9.40;5.68;;;5.70;99.90;;;;;;5185479;28;20030;-76
2022/11/11 02:07:41;;;;;;;10.60;6.00;;;5.40;99.90;;;;;;5177951;28;20026;-75
2022/11/11 02:10:33;;;;;;;;;;;5.20;99.90;;;;;;5187619;28;20037;-75
2022/11/11 02:16:38;;;;;;;10.93;6.53;;;5.10;99.90;;;;;;5180661;28;20040;-76
2022/11/11 02:19:48;;;;;;;8.77;5.63;;;5.00;99.90;;;;;;5153534;28;20057;-74
2022/11/11 02:22:45;;;;;;;11.45;6.47;;;5.00;99.90;;;;;;5159258;28;20053;-76
2022/11/11 02:25:39;;;;;;;16.00;5.97;;;5.00;99.90;;;;;;5175030;28;20036;-76
2022/11/11 02:28:33;;;;;;;9.57;5.60;;;5.10;99.90;;;;;;5206141;28;20033;-76
2022/11/11 02:31:28;;;;;;;11.82;5.50;;;5.20;99.90;;;;;;5173365;28;20030;-75
2022/11/11 02:34:22;;;;;;;14.05;5.53;;;5.20;99.90;;;;;;5174162;28;20044;-75
2022/11/11 02:37:25;;;;;;;14.93;5.55;;;5.20;99.90;;;;;;5187740;28;20018;-75
2022/11/11 02:40:22;;;;;;;10.25;5.70;;;5.20;99.90;;;;;;5188907;28;20030;-76
2022/11/11 02:43:13;;;;;;;14.23;6.13;;;5.10;99.90;;;;;;5191389;28;20034;-76
2022/11/11 02:46:08;;;;;;;10.18;5.50;;;5.20;99.90;;;;;;5169700;28;20025;-77
2022/11/11 02:49:03;;;;;;;;;;;5.10;99.90;;;;;;5153993;28;20034;-76
2022/11/11 02:51:54;;;;;;;9.77;5.30;;;5.00;99.90;;;;;;5176332;28;19913;-76
2022/11/11 02:54:51;;;;;;;7.78;5.18;;;5.20;99.90;;;;;;5207256;28;20027;-77
2022/11/11 02:57:50;;;;;;;9.57;5.18;;;5.30;99.90;;;;;;5191129;28;20024;-74
2022/11/11 03:00:46;;;;;;;8.48;4.85;;;5.20;99.90;;;;;;5186091;28;20340;-77
2022/11/11 03:03:43;;;;;;;8.23;5.00;;;5.10;99.90;;;;;;5202738;28;20032;-77
2022/11/11 03:06:39;;;;;;;8.93;4.70;;;5.20;99.90;;;;;;5176914;28;20361;-77
2022/11/11 03:09:32;;;;;;;7.57;4.78;;;5.10;99.90;;;;;;5171465;28;20048;-76
2022/11/11 03:12:29;;;;;;;10.32;5.20;;;5.10;99.90;;;;;;5186009;28;20041;-77
2022/11/11 03:15:26;;;;;;;9.60;4.50;;;5.20;99.90;;;;;;5173573;28;20026;-77
2022/11/11 03:18:17;;;;;;;7.00;4.25;;;5.20;99.90;;;;;;5186828;28;20243;-77
2022/11/11 03:21:11;;;;;;;7.97;4.75;;;5.20;99.90;;;;;;5172591;28;20033;-77
2022/11/11 03:24:05;;;;;;;7.78;3.47;;;5.40;99.90;;;;;;5190040;28;20036;-77
2022/11/11 03:26:56;;;;;;;7.30;5.30;;;5.40;99.90;;;;;;5197711;28;20338;-77
2022/11/11 03:29:50;;;;;;;9.52;5.05;;;5.50;99.90;;;;;;5190495;28;20223;-76
2022/11/11 03:32:42;;;;;;;14.70;6.25;;;5.50;99.90;;;;;;5187338;28;20026;-77
2022/11/11 03:35:36;;;;;;;9.27;5.60;;;5.60;99.90;;;;;;5172910;28;20040;-76
2022/11/11 03:38:27;;;;;;;9.90;5.57;;;5.50;99.90;;;;;;5168818;28;20033;-77
2022/11/11 03:41:18;;;;;;;11.82;4.80;;;5.40;99.90;;;;;;5180504;28;20416;-77
2022/11/11 03:44:10;;;;;;;8.35;5.43;;;5.30;99.90;;;;;;5166627;28;20039;-77
2022/11/11 03:47:01;;;;;;;10.20;4.80;;;5.20;99.90;;;;;;5185588;28;20052;-77
2022/11/11 03:49:53;;;;;;;9.95;5.20;;;5.10;99.90;;;;;;5173848;28;20036;-77
2022/11/11 03:52:44;;;;;;;7.65;4.45;;;5.00;99.90;;;;;;5170033;28;20038;-77
2022/11/11 03:55:36;;;;;;;8.13;4.82;;;5.00;99.90;;;;;;5192817;28;20018;-77
2022/11/11 03:58:29;;;;;;;8.35;5.50;;;5.00;99.90;;;;;;5193811;28;20219;-76
2022/11/11 04:10:56;;;;;;;9.40;5.88;;;4.90;99.90;;;;;;5177369;28;20040;-77
2022/11/11 04:16:58;;;;;;;13.57;5.40;;;5.00;99.90;;;;;;5185382;28;20034;-76
2022/11/11 04:22:59;;;;;;;12.05;5.63;;;5.20;99.90;;;;;;5173977;28;20445;-77
2022/11/11 04:25:52;;;;;;;11.30;5.85;;;5.40;99.90;;;;;;5188874;28;20528;-77
2022/11/11 04:35:27;;;;;;;8.32;5.18;;;5.00;99.90;;;;;;5177448;28;20339;-77
2022/11/11 04:41:28;;;;;;;17.40;5.80;;;4.70;99.90;;;;;;5193623;28;20037;-77
2022/11/11 04:47:37;;;;;;;8.50;4.70;;;4.50;99.90;;;;;;5192500;28;20025;-76
2022/11/11 04:50:42;;;;;;;10.10;5.30;;;4.50;99.90;;;;;;5155922;28;20286;-77
2022/11/11 04:53:36;;;;;;;11.13;5.88;;;4.60;99.90;;;;;;5181133;28;20061;-77
2022/11/11 04:59:37;;;;;;;9.30;5.65;;;4.40;99.90;;;;;;5181571;28;20021;-77
2022/11/11 05:09:23;;;;;;;8.63;5.22;;;4.30;99.90;;;;;;5111320;28;20231;-76
2022/11/11 05:12:14;;;;;;;12.85;6.05;;;4.40;99.90;;;;;;5125754;28;20243;-76
2022/11/11 05:21:29;;;;;;;10.63;6.35;;;4.10;99.90;;;;;;5166084;28;20049;-75
2022/11/11 05:27:31;;;;;;;11.98;5.65;;;4.00;99.90;;;;;;5194899;28;20259;-77
2022/11/11 05:30:24;;;;;;;9.50;6.00;;;4.00;99.90;;;;;;5210835;28;20033;-75
2022/11/11 05:33:23;;;;;;;10.00;5.80;;;3.90;99.90;;;;;;5182741;28;20023;-77
2022/11/11 05:36:14;;;;;;;9.63;5.50;;;4.00;99.90;;;;;;5163047;28;20037;-75
2022/11/11 05:39:06;;;;;;;10.32;6.00;;;4.00;99.90;;;;;;5173945;28;20033;-75
2022/11/11 05:41:59;;;;;;;1090.10;473.52;;;3.90;99.90;;;;;;5189498;28;20352;-75
2022/11/11 05:44:51;;;;;;;259.30;101.63;;;3.90;99.90;;;;;;5189407;28;20021;-78
2022/11/11 05:47:45;;;;;;;231.18;98.40;;;4.00;99.90;;;;;;5189139;28;20572;-78
2022/11/11 05:50:41;;;;;;;1243.70;637.58;;;4.00;99.90;;;;;;5184472;28;20030;-79
2022/11/11 05:53:36;;;;;;;426.83;231.68;;;4.10;99.90;;;;;;5177150;28;20034;-77
2022/11/11 05:56:27;;;;;;;148.40;69.68;;;4.10;99.90;;;;;;5158551;28;20056;-79
2022/11/11 05:59:19;;;;;;;498.30;325.95;;;4.10;99.90;;;;;;5184533;28;20034;-79
2022/11/11 06:02:16;;;;;;;67.25;35.25;;;4.20;99.90;;;;;;5188552;28;20053;-79
2022/11/11 06:05:07;;;;;;;213.88;141.20;;;4.10;99.90;;;;;;5156994;28;20109;-78
2022/11/11 06:08:03;;;;;;;22.52;13.98;;;4.10;99.90;;;;;;5166316;28;20048;-78
2022/11/11 06:10:55;;;;;;;20.35;10.23;;;4.00;99.90;;;;;;5184185;28;20036;-78
2022/11/11 06:13:51;;;;;;;26.35;16.88;;;4.00;99.90;;;;;;5187418;28;20022;-77
2022/11/11 06:16:45;;;;;;;32.28;20.02;;;4.10;99.90;;;;;;5181278;28;20025;-78
2022/11/11 06:19:42;;;;;;;15.30;8.10;;;4.20;99.90;;;;;;5175394;28;20032;-77
2022/11/11 06:22:56;;;;;;;26.42;17.50;;;4.40;99.90;;;;;;5189753;28;20346;-78
2022/11/11 06:29:02;;;;;;;28.30;18.60;;;4.60;99.90;;;;;;5187364;28;20045;-77
2022/11/11 06:31:56;;;;;;;20.08;12.05;;;4.70;99.90;;;;;;5174368;28;20024;-78
2022/11/11 06:34:48;;;;;;;25.75;14.60;;;4.70;99.90;;;;;;5188497;28;20034;-77
2022/11/11 06:37:42;;;;;;;46.17;23.80;;;4.80;99.90;;;;;;5179336;28;20048;-77
2022/11/11 06:40:36;;;;;;;32.65;14.93;;;5.00;99.90;;;;;;5168824;28;20026;-76
2022/11/11 06:43:28;;;;;;;27.58;16.23;;;5.00;99.90;;;;;;5181034;28;20045;-76
2022/11/11 06:46:25;;;;;;;23.02;13.93;;;5.10;99.90;;;;;;5189795;28;20032;-77
2022/11/11 06:49:16;;;;;;;26.25;14.75;;;5.20;99.90;;;;;;5177750;28;20471;-78
2022/11/11 06:52:08;;;;;;;28.35;16.25;;;5.30;99.90;;;;;;5184649;28;20342;-76
2022/11/11 06:55:01;;;;;;;28.70;13.48;;;5.40;99.90;;;;;;5175385;28;20337;-77
2022/11/11 06:57:52;;;;;;;78.03;54.20;;;5.60;99.90;;;;;;5187449;28;20324;-78
2022/11/11 07:00:50;;;;;;;35.60;24.63;;;5.60;99.90;;;;;;5187512;28;20074;-79
2022/11/11 07:03:43;;;;;;;65.45;43.25;;;5.70;99.90;;;;;;5180716;28;20026;-77
2022/11/11 07:06:36;;;;;;;32.42;22.40;;;5.90;99.90;;;;;;5176186;28;20050;-78
2022/11/11 07:09:32;;;;;;;19.58;11.90;;;6.00;99.90;;;;;;5190433;28;20418;-78
2022/11/11 07:12:24;;;;;;;25.52;12.52;;;6.10;99.90;;;;;;5187895;28;20028;-78
2022/11/11 07:15:15;;;;;;;151.30;90.38;;;6.30;99.90;;;;;;5188125;28;20559;-78
2022/11/11 07:18:07;;;;;;;95.45;58.58;;;6.60;99.90;;;;;;5186692;28;20029;-78
2022/11/11 07:21:01;;;;;;;24.13;14.27;;;6.80;99.90;;;;;;5188655;28;20314;-77
2022/11/11 07:23:52;;;;;;;60.15;32.13;;;7.00;99.90;;;;;;5186759;28;20036;-77
2022/11/11 07:26:46;;;;;;;104.65;59.67;;;7.30;99.90;;;;;;5175257;28;20018;-76
2022/11/11 07:29:38;;;;;;;56.67;34.40;;;7.50;99.90;;;;;;5183287;28;20034;-76
2022/11/11 07:32:32;;;;;;;340.00;189.88;;;7.60;99.90;;;;;;5187034;28;20032;-79
2022/11/11 07:35:24;;;;;;;140.52;76.57;;;7.70;99.90;;;;;;5181304;28;20034;-78
2022/11/11 07:38:15;;;;;;;1163.43;654.72;;;7.80;99.90;;;;;;5184131;28;20373;-77
2022/11/11 07:41:07;;;;;;;1728.82;600.47;;;7.90;99.90;;;;;;5169992;28;20071;-77
2022/11/11 07:43:58;;;;;;;486.88;258.02;;;7.90;99.90;;;;;;5171401;28;20048;-77
2022/11/11 07:46:53;;;;;;;718.00;425.05;;;8.10;99.90;;;;;;5174829;28;20045;-77
2022/11/11 07:49:46;;;;;;;275.73;150.00;;;8.20;99.90;;;;;;5162800;28;20531;-78
2022/11/11 07:52:40;;;;;;;80.30;43.80;;;8.50;99.90;;;;;;5167292;28;20037;-78
2022/11/11 07:55:34;;;;;;;554.28;298.58;;;8.60;99.90;;;;;;5172395;28;20029;-78
2022/11/11 07:58:26;;;;;;;975.93;455.17;;;8.90;99.90;;;;;;5183062;28;20037;-78
2022/11/11 08:01:18;;;;;;;1539.55;615.03;;;8.80;99.90;;;;;;5180394;28;20036;-78
2022/11/11 08:04:10;;;;;;;612.05;363.88;;;8.80;99.90;;;;;;5177019;28;20051;-78
2022/11/11 08:07:01;;;;;;;1023.20;548.53;;;9.10;99.90;;;;;;5183376;28;20361;-78
2022/11/11 08:09:55;;;;;;;284.00;157.02;;;9.10;99.90;;;;;;5203080;28;20329;-78
2022/11/11 08:16:05;;;;;;;259.77;135.68;;;9.60;99.90;;;;;;5169268;28;20021;-77
2022/11/11 08:18:58;;;;;;;;;;;9.60;99.90;;;;;;5178242;28;20061;-78
2022/11/11 08:21:51;;;;;;;144.50;84.00;;;9.60;99.90;;;;;;5172559;28;19917;-78
2022/11/11 08:24:42;;;;;;;233.63;167.95;;;9.40;99.90;;;;;;5186659;28;20029;-78
2022/11/11 08:27:34;;;;;;;325.40;217.27;;;9.60;99.90;;;;;;5198154;28;20022;-77
2022/11/11 08:30:26;;;;;;;176.02;94.70;;;9.70;99.90;;;;;;5185883;28;20038;-76
2022/11/11 08:33:18;;;;;;;395.98;253.60;;;9.60;99.90;;;;;;5172163;28;20025;-77
2022/11/11 08:36:12;;;;;;;42.15;28.13;;;9.70;99.90;;;;;;5182124;28;20038;-78
2022/11/11 08:39:07;;;;;;;34.47;23.40;;;9.80;99.90;;;;;;5183355;28;20032;-77
2022/11/11 08:41:58;;;;;;;13.18;10.32;;;10.00;99.90;;;;;;5188259;28;20030;-79
2022/11/11 08:44:50;;;;;;;11.55;8.85;;;10.30;99.90;;;;;;5191688;28;20073;-78
2022/11/11 08:47:44;;;;;;;14.30;9.70;;;10.50;99.90;;;;;;5186105;28;20752;-78
2022/11/11 08:50:41;;;;;;;16.90;9.00;;;10.70;99.90;;;;;;5187309;28;20044;-79
2022/11/11 08:53:33;;;;;;;13.88;8.93;;;10.90;99.90;;;;;;5197963;28;20036;-78
2022/11/11 08:56:24;;;;;;;12.55;9.27;;;10.90;99.90;;;;;;5180977;28;20030;-77
2022/11/11 08:59:16;;;;;;;10.02;7.10;;;11.00;99.90;;;;;;5206835;28;20028;-76
2022/11/11 09:02:11;;;;;;;12.02;7.15;;;11.10;99.90;;;;;;5164566;28;20052;-77
2022/11/11 09:05:05;;;;;;;14.55;8.45;;;10.90;99.90;;;;;;5175968;28;20057;-77
2022/11/11 09:08:00;;;;;;;12.40;8.73;;;11.00;99.90;;;;;;5181720;28;20036;-77
2022/11/11 09:10:53;;;;;;;19.25;15.45;;;11.20;99.90;;;;;;5169023;28;20535;-76
2022/11/11 09:13:48;;;;;;;12.45;7.28;;;11.60;99.90;;;;;;5177783;28;20033;-76
2022/11/11 09:16:42;;;;;;;11.80;7.07;;;11.80;99.90;;;;;;5177191;28;20291;-77
2022/11/11 09:19:36;;;;;;;13.45;9.50;;;12.20;99.90;;;;;;5159145;28;20046;-76
2022/11/11 09:22:29;;;;;;;23.30;20.77;;;12.50;99.90;;;;;;5187245;28;20028;-78
2022/11/11 09:25:22;;;;;;;38.85;28.40;;;12.90;99.90;;;;;;5189513;28;20030;-76
2022/11/11 09:28:16;;;;;;;9.07;6.25;;;13.20;99.90;;;;;;5188361;28;20036;-77
2022/11/11 09:31:09;;;;;;;26.38;15.68;;;13.40;99.90;;;;;;5188509;28;20036;-77
2022/11/11 09:34:01;;;;;;;273.30;152.75;;;13.50;99.90;;;;;;5174358;28;20026;-78
2022/11/11 09:36:56;;;;;;;46.17;27.15;;;13.50;99.90;;;;;;5187434;28;20040;-78
2022/11/11 09:39:47;;;;;;;237.32;140.13;;;13.50;99.90;;;;;;5189386;28;20038;-78
2022/11/11 09:43:06;;;;;;;439.65;257.95;;;13.70;99.90;;;;;;5172470;28;20025;-79
2022/11/11 09:46:12;;;;;;;79.80;43.92;;;14.00;99.90;;;;;;5147425;28;20139;-77
2022/11/11 09:49:21;;;;;;;181.20;108.85;;;14.50;99.90;;;;;;5168446;28;20044;-76
2022/11/11 09:52:22;;;;;;;679.20;480.42;;;14.90;99.90;;;;;;5171358;28;20026;-78
2022/11/11 09:55:22;;;;;;;26.45;17.73;;;14.50;99.90;;;;;;5184987;28;20029;-76
2022/11/11 09:58:42;;;;;;;1103.82;721.85;;;14.60;99.90;;;;;;5166211;28;20350;-77
2022/11/11 10:01:43;;;;;;;104.93;66.45;;;15.10;99.90;;;;;;5181063;28;20366;-77
2022/11/11 10:04:48;;;;;;;37.65;26.95;;;15.80;99.90;;;;;;5179404;28;20055;-77
2022/11/11 10:07:45;;;;;;;1999.90;999.80;;;16.40;99.90;;;;;;5158803;28;20329;-75
2022/11/11 10:10:48;;;;;;;314.77;231.80;;;16.50;99.90;;;;;;5187484;28;20080;-78
2022/11/11 10:13:39;;;;;;;723.90;508.08;;;16.50;99.90;;;;;;5173867;28;20025;-76
2022/11/11 10:16:56;;;;;;;295.75;190.77;;;15.80;94.90;;;;;;5186218;28;20032;-79
2022/11/11 10:19:59;;;;;;;286.08;183.00;;;15.30;99.90;;;;;;5184235;28;20026;-79
2022/11/11 10:23:04;;;;;;;362.20;236.20;;;15.20;99.90;;;;;;5179974;28;20041;-75
2022/11/11 10:25:58;;;;;;;81.40;71.68;;;15.00;97.40;;;;;;5175623;28;20040;-79
2022/11/11 10:28:53;;;;;;;15.30;9.35;;;15.00;99.90;;;;;;5189818;28;20363;-78
2022/11/11 10:31:52;;;;;;;;;;;15.00;99.90;;;;;;5166962;28;20040;-77
2022/11/11 10:34:46;;;;;;;13.80;8.65;;;15.30;99.90;;;;;;5167666;28;20179;-77
2022/11/11 10:37:42;;;;;;;82.88;64.22;;;15.20;99.90;;;;;;5166615;28;20018;-78
2022/11/11 10:40:40;;;;;;;23.77;20.83;;;15.50;76.40;;;;;;5185164;28;20142;-77
2022/11/11 10:43:31;;;;;;;16.15;14.35;;;15.10;99.90;;;;;;5173224;28;20040;-76
2022/11/11 10:46:36;;;;;;;19.05;14.45;;;15.30;99.90;;;;;;5184551;28;20036;-76
2022/11/11 10:49:37;;;;;;;256.60;187.83;;;15.30;99.90;;;;;;5179522;28;20397;-76
2022/11/11 10:52:43;;;;;;;39.25;21.48;;;15.50;99.90;;;;;;5186412;28;20259;-76
2022/11/11 10:56:00;;;;;;;37.42;33.67;;;15.50;97.10;;;;;;5183163;28;20101;-78
2022/11/11 10:59:06;;;;;;;34.33;30.58;;;16.40;62.80;;;;;;5180022;28;20034;-76
2022/11/11 11:02:18;;;;;;;12.93;4.82;;;18.60;99.90;;;;;;5169084;28;20160;-78
2022/11/11 11:05:41;;;;;;;6.80;4.43;;;19.70;99.90;;;;;;5175427;28;20054;-77
2022/11/11 11:08:43;;;;;;;5.07;4.07;;;21.10;99.90;;;;;;5166267;28;20024;-75
2022/11/11 11:11:43;;;;;;;12.18;5.85;;;22.30;99.90;;;;;;5151307;28;20232;-76
2022/11/11 11:14:40;;;;;;;6.82;4.50;;;21.50;99.90;;;;;;5166543;28;20223;-76
2022/11/11 11:17:50;;;;;;;9.20;5.65;;;21.20;99.90;;;;;;5188426;28;20026;-77
2022/11/11 11:20:58;;;;;;;7.10;4.50;;;21.00;99.90;;;;;;5187227;28;20086;-76
2022/11/11 11:23:52;;;;;;;6.32;3.70;;;20.50;99.90;;;;;;5186804;28;20275;-76
2022/11/11 11:26:45;;;;;;;7.88;4.90;;;21.80;99.90;;;;;;5185830;28;20055;-76
2022/11/11 11:29:42;;;;;;;482.35;363.73;;;22.40;99.90;;;;;;5188422;28;20018;-78
2022/11/11 11:32:33;;;;;;;802.70;678.65;;;21.40;99.90;;;;;;5166811;28;20059;-77
2022/11/11 11:35:43;;;;;;;175.98;160.95;;;19.80;99.90;;;;;;5189625;28;20046;-76
2022/11/11 11:38:49;;;;;;;36.45;32.95;;;19.70;99.90;;;;;;5171684;28;20032;-75
2022/11/11 11:41:50;;;;;;;46.03;41.72;;;19.30;99.90;;;;;;5161264;28;20043;-76
2022/11/11 11:44:48;;;;;;;73.03;66.78;;;19.90;99.90;;;;;;5185607;28;20024;-77
2022/11/11 11:47:50;;;;;;;21.45;19.58;;;20.60;99.90;;;;;;5180741;28;20516;-77
2022/11/11 11:50:50;;;;;;;17.10;15.30;;;20.80;99.90;;;;;;5173281;28;20022;-76
2022/11/11 11:54:03;;;;;;;42.55;37.72;;;20.80;99.90;;;;;;5174337;28;20030;-78
2022/11/11 11:57:10;;;;;;;10.75;9.20;;;20.50;99.90;;;;;;5179944;28;20030;-77
2022/11/11 12:00:05;;;;;;;20.30;18.13;;;20.70;99.90;;;;;;5166069;28;20219;-76
2022/11/11 12:03:28;;;;;;;34.08;30.50;;;21.40;99.90;;;;;;5189534;28;20030;-76
2022/11/11 12:07:15;;;;;;;25.60;17.45;;;19.10;99.90;;;;;;5169991;28;20054;-78
2022/11/11 12:10:24;;;;;;;26.08;23.35;;;19.40;99.90;;;;;;5150618;28;20038;-78
2022/11/11 12:13:47;;;;;;;13.50;10.85;;;19.60;99.90;;;;;;5180327;28;20040;-78
2022/11/11 12:16:47;;;;;;;35.33;25.15;;;20.10;99.90;;;;;;5184863;28;20480;-78
2022/11/11 12:20:00;;;;;;;64.45;56.10;;;20.70;99.90;;;;;;5166542;28;20038;-80
2022/11/11 12:23:13;;;;;;;8.10;6.47;;;19.90;99.90;;;;;;5166646;28;20044;-79
2022/11/11 12:26:10;;;;;;;13.23;11.88;;;19.20;99.90;;;;;;5160709;28;20278;-80
2022/11/11 12:29:21;;;;;;;9.13;6.57;;;18.70;99.90;;;;;;5170441;28;20029;-77
2022/11/11 12:32:40;;;;;;;6.22;4.70;;;18.30;99.90;;;;;;5184720;28;20037;-76
2022/11/11 12:35:51;;;;;;;39.28;26.60;;;18.80;99.90;;;;;;5169875;28;20198;-76
2022/11/11 12:39:14;;;;;;;9.40;7.65;;;19.40;99.90;;;;;;5205717;28;20029;-76
2022/11/11 12:42:17;;;;;;;5.07;4.63;;;19.50;99.90;;;;;;5097313;28;20042;-76
2022/11/11 12:45:20;;;;;;;45.05;40.65;;;19.90;99.90;;;;;;5160701;28;20045;-77
2022/11/11 12:48:50;;;;;;;94.25;85.35;;;20.30;99.90;;;;;;5185680;28;20060;-77
2022/11/11 12:51:47;;;;;;;24.98;22.25;;;21.20;99.90;;;;;;5171123;28;20047;-77
2022/11/11 12:54:47;;;;;;;9.20;8.30;;;21.80;99.90;;;;;;5172890;28;20021;-76
2022/11/11 12:57:57;;;;;;;4.20;3.00;;;22.10;99.90;;;;;;5199839;28;20014;-77
2022/11/11 13:01:17;;;;;;;6.13;2.95;;;22.30;99.90;;;;;;5173682;28;20068;-76
2022/11/11 13:04:29;;;;;;;5.47;2.75;;;22.50;99.90;;;;;;5183887;28;20219;-75
2022/11/11 13:07:55;;;;;;;3.85;2.97;;;22.00;99.90;;;;;;5167259;28;20056;-76
2022/11/11 13:10:52;;;;;;;220.63;201.35;;;22.20;99.90;;;;;;5167849;28;20030;-77
2022/11/11 13:14:04;;;;;;;30.17;27.50;;;21.60;99.90;;;;;;5174184;28;20034;-77
2022/11/11 13:16:59;;;;;;;26.45;24.27;;;21.40;99.90;;;;;;5182949;28;20029;-77
2022/11/11 13:20:15;;;;;;;6.10;5.60;;;21.80;99.90;;;;;;5174707;28;20038;-75
2022/11/11 13:23:10;;;;;;;8.23;6.65;;;21.70;99.90;;;;;;5185552;28;20033;-75
2022/11/11 13:26:06;;;;;;;8.55;7.85;;;20.70;99.90;;;;;;5189036;28;20219;-77
2022/11/11 13:29:26;;;;;;;15.85;14.55;;;20.00;99.90;;;;;;5180956;28;20030;-76
2022/11/11 13:32:23;;;;;;;16.42;14.93;;;18.60;99.90;;;;;;5099477;28;20342;-76
2022/11/11 13:35:23;;;;;;;6.55;3.50;;;18.00;99.90;;;;;;5099143;29;20023;-76
2022/11/11 13:38:38;;;;;;;4.10;3.20;;;17.30;99.90;;;;;;5174656;28;20022;-76
2022/11/11 13:41:35;;;;;;;15.52;14.00;;;16.60;99.90;;;;;;5179584;28;20402;-77
2022/11/11 13:44:35;;;;;;;10.13;4.43;;;16.30;99.90;;;;;;5188297;28;20192;-77
2022/11/11 13:47:37;;;;;;;7.28;4.30;;;16.90;99.90;;;;;;5163786;28;20056;-77
2022/11/11 13:50:33;;;;;;;4.35;3.10;;;17.60;99.90;;;;;;5187647;28;20041;-77
2022/11/11 13:53:36;;;;;;;5.07;4.03;;;17.60;99.90;;;;;;5188925;28;20026;-77
2022/11/11 13:56:41;;;;;;;6.53;2.88;;;17.70;99.90;;;;;;5187136;28;20562;-77
2022/11/11 13:59:41;;;;;;;4.35;3.05;;;17.10;99.90;;;;;;5184701;28;20030;-77
2022/11/11 14:02:35;;;;;;;41.28;32.85;;;16.30;99.90;;;;;;5172193;28;20042;-77
2022/11/11 14:05:27;;;;;;;6.18;4.00;;;15.80;99.90;;;;;;5183111;28;20052;-77
2022/11/11 14:08:46;;;;;;;3.55;2.70;;;15.70;99.90;;;;;;5190315;28;20044;-77
2022/11/11 14:11:40;;;;;;;5.88;4.25;;;15.60;99.90;;;;;;5190487;28;20030;-77
2022/11/11 14:14:34;;;;;;;5.03;3.00;;;15.20;99.90;;;;;;5189259;28;20030;-77
2022/11/11 14:17:31;;;;;;;11.05;3.45;;;15.10;99.90;;;;;;5184285;28;20506;-77
2022/11/11 14:20:29;;;;;;;8.05;5.72;;;14.90;99.90;;;;;;5188567;28;20030;-77
2022/11/11 14:23:39;;;;;;;5.63;3.63;;;14.80;99.90;;;;;;5174664;28;20069;-77
2022/11/11 14:26:36;;;;;;;11.52;2.78;;;14.60;99.90;;;;;;5196091;28;20204;-77
2022/11/11 14:29:35;;;;;;;18.15;10.52;;;14.50;99.90;;;;;;5209633;28;20206;-77
2022/11/11 14:33:16;;;;;;;8.13;6.03;;;14.50;99.90;;;;;;5195995;28;20037;-77
2022/11/11 14:36:32;;;;;;;15.68;6.50;;;14.20;99.90;;;;;;5180043;28;20072;-77
2022/11/11 14:39:54;;;;;;;15.52;9.13;;;14.00;99.90;;;;;;5209559;28;20033;-76
2022/11/11 14:42:46;;;;;;;87.75;39.90;;;13.90;99.90;;;;;;5204473;28;20029;-77
2022/11/11 14:45:44;;;;;;;61.95;39.05;;;13.80;99.90;;;;;;5188570;28;20025;-77
2022/11/11 14:48:57;;;;;;;120.22;106.05;;;13.70;99.90;;;;;;5173588;28;20036;-77
2022/11/11 14:52:00;;;;;;;162.57;123.72;;;13.60;99.90;;;;;;5170063;28;20507;-77
2022/11/11 14:55:05;;;;;;;173.45;154.77;;;13.40;99.90;;;;;;5187438;28;20040;-76
2022/11/11 14:58:20;;;;;;;24.40;20.63;;;13.30;99.90;;;;;;5182515;28;20521;-76
2022/11/11 15:01:16;;;;;;;6.63;4.82;;;13.10;99.90;;;;;;5188282;28;20037;-76
2022/11/11 15:04:11;;;;;;;7.75;4.28;;;12.90;99.90;;;;;;5207363;28;20230;-76
2022/11/11 15:07:09;;;;;;;8.40;5.38;;;12.50;99.90;;;;;;5174727;28;20054;-76
2022/11/11 15:10:17;;;;;;;12.10;5.75;;;12.20;99.90;;;;;;5187765;28;20046;-76
2022/11/11 15:13:17;;;;;;;11.27;7.18;;;12.10;99.90;;;;;;5172573;28;20540;-76
2022/11/11 15:16:46;;;;;;;10.00;6.20;;;12.00;99.90;;;;;;5186572;28;20040;-76
2022/11/11 15:20:16;;;;;;;9.63;3.83;;;11.90;99.90;;;;;;5186118;28;20022;-76
2022/11/11 15:23:35;;;;;;;12.23;4.45;;;11.80;99.90;;;;;;5172558;28;20029;-77
2022/11/11 15:27:06;;;;;;;6.20;3.95;;;11.60;99.90;;;;;;5193883;28;20319;-76
2022/11/11 15:30:18;;;;;;;8.13;5.20;;;11.30;99.90;;;;;;5152429;28;20018;-76
2022/11/11 15:34:13;;;;;;;10.88;5.82;;;11.20;99.90;;;;;;5164659;28;20025;-76
2022/11/11 15:37:14;;;;;;;7.75;4.85;;;11.20;99.90;;;;;;5087547;29;20341;-77
2022/11/11 15:40:08;;;;;;;12.00;6.88;;;11.10;99.90;;;;;;5097647;28;20264;-75
2022/11/11 15:43:02;;;;;;;11.07;6.63;;;11.00;99.90;;;;;;5147649;28;20046;-77
2022/11/11 15:46:02;;;;;;;9.80;5.60;;;10.80;99.90;;;;;;5185772;28;20032;-77
2022/11/11 15:48:53;;;;;;;8.10;4.95;;;10.70;99.90;;;;;;5171927;28;20057;-77
2022/11/11 15:51:55;;;;;;;9.63;4.43;;;10.70;99.90;;;;;;5171836;28;20044;-77
2022/11/11 15:54:50;;;;;;;7.28;5.45;;;10.60;99.90;;;;;;5170667;28;20030;-77
2022/11/11 15:57:47;;;;;;;7.30;4.45;;;10.50;99.90;;;;;;5192767;28;20056;-77
2022/11/11 16:00:39;;;;;;;14.27;6.00;;;10.40;99.90;;;;;;5187078;28;20515;-77
2022/11/11 16:03:46;;;;;;;7.97;5.13;;;10.30;99.90;;;;;;5186708;28;20045;-77
2022/11/11 16:06:40;;;;;;;6.47;4.60;;;10.20;99.90;;;;;;5191838;28;20053;-77
2022/11/11 16:09:32;;;;;;;10.82;4.97;;;10.10;99.90;;;;;;5186589;28;20032;-77
2022/11/11 16:12:32;;;;;;;8.10;4.05;;;10.00;99.90;;;;;;5186067;28;20030;-77
2022/11/11 16:15:39;;;;;;;6.90;3.70;;;9.90;99.90;;;;;;5165206;28;20036;-77
2022/11/11 16:18:56;;;;;;;5.88;4.47;;;9.90;99.90;;;;;;5176858;28;20239;-77
2022/11/11 16:22:01;;;;;;;8.20;4.80;;;9.80;99.90;;;;;;5185278;28;20018;-77
2022/11/11 16:24:54;;;;;;;;;;;9.80;99.90;;;;;;5183936;28;20047;-77
2022/11/11 16:27:45;;;;;;;9.23;4.90;;;9.80;99.90;;;;;;5185921;28;19913;-77
2022/11/11 16:30:37;;;;;;;9.65;7.03;;;9.70;99.90;;;;;;5173218;28;20025;-76
2022/11/11 16:33:39;;;;;;;7.85;5.38;;;9.60;99.90;;;;;;5176572;28;20021;-77
2022/11/11 16:36:33;;;;;;;9.07;5.63;;;9.50;99.90;;;;;;5174833;28;20052;-77